createdAt,value
2018-07-16T13:32:36.801Z,43.60
2018-07-16T13:35:04.938Z,43.90
2018-07-16T13:37:33.006Z,43.60
2018-07-16T13:42:29.109Z,43.60
2018-07-16T13:44:57.343Z,44.00
2018-07-16T13:49:53.598Z,43.60
2018-07-16T13:54:49.759Z,44.00
2018-07-16T13:57:18.265Z,43.50
2018-07-16T13:59:46.514Z,44.40
2018-07-16T14:02:14.893Z,44.60
2018-07-16T14:04:42.957Z,44.40
2018-07-16T14:07:11.085Z,44.50
2018-07-16T14:09:39.104Z,44.90
2018-07-16T14:12:07.189Z,45.00
2018-07-16T14:14:35.254Z,44.80
2018-07-16T14:17:03.315Z,44.50
2018-07-16T14:19:31.427Z,45.20
2018-07-16T14:21:59.496Z,45.10
2018-07-16T14:24:27.666Z,45.70
2018-07-16T14:26:57.024Z,45.40
2018-07-16T14:29:25.401Z,45.50
2018-07-16T14:31:53.576Z,45.40
2018-07-16T14:34:21.658Z,44.50
2018-07-16T14:36:49.778Z,45.10
2018-07-16T14:41:46.810Z,45.00
2018-07-16T14:44:14.874Z,45.30
2018-07-16T14:46:42.955Z,45.10
2018-07-16T14:51:39.127Z,45.30
2018-07-16T14:56:34.950Z,44.60
2018-07-16T14:59:03.305Z,44.90
2018-07-16T15:01:31.375Z,45.00
2018-07-16T15:03:59.455Z,44.70
2018-07-16T15:06:27.528Z,45.00
2018-07-16T15:08:55.589Z,45.90
2018-07-16T15:13:52.087Z,46.20
2018-07-16T15:16:21.381Z,45.70
2018-07-16T15:18:49.393Z,45.90
2018-07-16T15:21:17.855Z,45.60
2018-07-16T15:23:45.534Z,45.70
2018-07-16T15:26:13.646Z,46.20
2018-07-16T15:28:42.918Z,46.40
2018-07-16T15:31:11.095Z,46.30
2018-07-16T15:33:39.645Z,47.10
2018-07-16T15:36:08.718Z,46.70
2018-07-16T15:43:32.870Z,46.70
2018-07-16T15:48:29.136Z,47.30
2018-07-16T15:50:57.415Z,47.90
2018-07-16T15:55:53.527Z,48.10
2018-07-16T15:58:21.657Z,47.90
2018-07-16T16:00:49.770Z,48.10
2018-07-16T16:03:18.079Z,48.50
2018-07-16T16:05:46.214Z,48.10
2018-07-16T16:08:14.535Z,48.50
2018-07-16T16:13:10.719Z,49.10
2018-07-16T16:15:38.781Z,49.20
2018-07-16T16:18:06.797Z,49.50
2018-07-16T16:20:34.870Z,49.70
2018-07-16T16:23:02.997Z,49.70
2018-07-16T16:27:59.495Z,49.80
2018-07-16T16:32:55.600Z,50.10
2018-07-16T16:37:51.505Z,50.30
2018-07-16T16:40:19.528Z,50.30
2018-07-16T16:42:47.879Z,50.60
2018-07-16T16:45:16.194Z,50.90
2018-07-16T16:47:44.283Z,51.10
2018-07-16T16:50:12.376Z,51.50
2018-07-16T16:52:40.571Z,51.50
2018-07-16T16:55:08.828Z,51.70
2018-07-16T17:00:05.315Z,52.30
2018-07-16T17:05:01.424Z,52.80
2018-07-16T17:07:30.723Z,53.20
2018-07-16T17:09:58.748Z,53.10
2018-07-16T17:12:27.522Z,53.10
2018-07-16T17:17:23.613Z,52.80
2018-07-16T17:22:19.785Z,53.40
2018-07-16T17:24:48.230Z,53.10
2018-07-16T17:27:16.508Z,53.10
2018-07-16T17:29:44.529Z,53.10
2018-07-16T17:32:12.753Z,53.70
2018-07-16T17:34:41.263Z,54.10
2018-07-16T17:37:09.442Z,54.20
2018-07-16T17:39:37.719Z,54.30
2018-07-16T17:44:34.141Z,54.80
2018-07-16T17:47:02.315Z,55.10
2018-07-16T17:49:30.378Z,55.00
2018-07-16T17:51:58.725Z,55.10
2018-07-16T17:56:54.850Z,55.60
2018-07-16T17:59:23.043Z,55.70
2018-07-16T18:01:51.435Z,56.10
2018-07-16T18:04:19.563Z,56.60
2018-07-16T18:06:47.739Z,57.10
2018-07-16T18:09:15.923Z,58.10
2018-07-16T18:16:40.412Z,58.50
2018-07-16T18:19:08.774Z,58.40
2018-07-16T18:21:36.817Z,58.00
2018-07-16T18:26:32.837Z,57.90
2018-07-16T18:29:01.463Z,58.00
2018-07-16T18:31:29.832Z,58.70
2018-07-16T18:36:25.858Z,58.90
2018-07-16T18:38:53.969Z,58.90
2018-07-16T18:41:21.992Z,58.60
2018-07-16T18:43:50.103Z,58.80
2018-07-16T18:46:18.125Z,58.90
2018-07-16T18:48:46.259Z,59.00
2018-07-16T18:51:14.786Z,59.60
2018-07-16T18:53:42.989Z,59.70
2018-07-16T18:56:11.030Z,59.70
2018-07-16T19:06:03.431Z,58.80
2018-07-16T19:08:31.789Z,59.10
2018-07-16T19:18:24.058Z,59.20
2018-07-16T19:23:20.507Z,59.20
2018-07-16T19:28:16.634Z,59.30
2018-07-16T19:30:44.730Z,59.60
2018-07-16T19:38:08.975Z,59.70
2018-07-16T19:40:37.234Z,59.80
2018-07-16T19:43:05.467Z,59.80
2018-07-16T19:45:33.750Z,60.10
2018-07-16T19:48:02.222Z,60.50
2018-07-16T19:50:30.445Z,60.40
2018-07-16T19:52:58.505Z,60.30
2018-07-16T19:55:26.644Z,60.80
2018-07-16T20:02:50.895Z,61.20
2018-07-16T20:07:47.261Z,61.80
2018-07-16T20:10:15.352Z,62.00
2018-07-16T20:15:17.683Z,61.80
2018-07-16T20:17:46.102Z,61.20
2018-07-16T20:20:14.243Z,61.40
2018-07-16T20:22:42.550Z,62.20
2018-07-16T20:27:38.706Z,63.30
2018-07-16T20:32:36.260Z,63.40
2018-07-16T20:37:33.464Z,63.60
2018-07-16T20:40:01.819Z,63.60
2018-07-16T20:42:30.186Z,63.70
2018-07-16T20:44:58.185Z,63.90
2018-07-16T20:47:26.287Z,64.40
2018-07-16T20:49:54.768Z,64.60
2018-07-16T20:54:50.922Z,64.80
2018-07-16T20:57:19.118Z,65.20
2018-07-16T20:59:47.234Z,65.30
2018-07-16T21:02:15.335Z,65.90
2018-07-16T21:04:43.386Z,65.80
2018-07-16T21:07:12.264Z,65.30
2018-07-16T21:09:40.397Z,65.80
2018-07-16T21:12:08.529Z,66.20
2018-07-16T21:17:04.943Z,67.60
2018-07-16T21:24:29.038Z,68.50
2018-07-16T21:26:57.862Z,68.80
2018-07-16T21:29:25.961Z,68.70
2018-07-16T21:34:22.368Z,69.20
2018-07-16T21:36:50.495Z,69.20
2018-07-16T21:39:18.823Z,69.60
2018-07-16T21:41:46.869Z,70.00
2018-07-16T21:46:43.093Z,70.60
2018-07-16T21:49:11.349Z,70.80
2018-07-16T21:51:39.457Z,70.90
2018-07-16T21:56:35.724Z,71.20
2018-07-16T21:59:04.371Z,71.20
2018-07-16T22:01:32.782Z,71.10
2018-07-16T22:04:01.620Z,70.90
2018-07-16T22:08:57.797Z,70.60
2018-07-16T22:13:54.991Z,70.70
2018-07-16T22:16:23.223Z,71.00
2018-07-16T22:18:51.475Z,71.10
2018-07-16T22:21:19.722Z,70.20
2018-07-16T22:23:47.847Z,70.70
2018-07-16T22:26:16.195Z,71.70
2018-07-16T22:28:44.554Z,71.80
2018-07-16T22:33:40.703Z,72.10
2018-07-16T22:36:08.816Z,72.10
2018-07-16T22:43:33.894Z,72.60
2018-07-16T22:46:01.919Z,72.50
2018-07-16T22:50:58.126Z,72.20
2018-07-16T22:55:55.479Z,72.80
2018-07-16T22:58:23.513Z,72.60
2018-07-16T23:03:19.702Z,72.90
2018-07-16T23:05:47.783Z,73.00
2018-07-16T23:08:17.321Z,72.60
2018-07-16T23:10:45.486Z,72.50
2018-07-16T23:20:38.464Z,73.10
2018-07-16T23:23:06.682Z,72.90
2018-07-16T23:25:34.862Z,73.00
2018-07-16T23:28:03.130Z,73.40
2018-07-16T23:32:59.278Z,73.90
2018-07-16T23:35:27.338Z,74.00
2018-07-16T23:37:55.560Z,73.40
2018-07-16T23:40:23.622Z,72.80
2018-07-16T23:42:51.924Z,72.90
2018-07-16T23:45:20.307Z,73.20
2018-07-16T23:47:48.600Z,73.40
2018-07-16T23:52:44.814Z,73.70
2018-07-16T23:55:13.512Z,73.70
2018-07-16T23:57:42.219Z,73.70
